sensor_id;sensor_type;location;lat;lon;timestamp;pressure;altitude;pressure_sealevel;temperature;humidity
35248;BME280;21380;52.194;20.520;2022-07-22T00:01:21;100536.53;;;24.60;73.14
35248;BME280;21380;52.194;20.520;2022-07-22T00:03:47;100540.06;;;24.59;73.07
35248;BME280;21380;52.194;20.520;2022-07-22T00:06:13;100530.47;;;24.55;73.06
35248;BME280;21380;52.194;20.520;2022-07-22T00:08:39;100541.84;;;24.57;73.23
35248;BME280;21380;52.194;20.520;2022-07-22T00:11:05;100540.09;;;24.58;73.14
35248;BME280;21380;52.194;20.520;2022-07-22T00:13:32;100540.13;;;24.55;73.14
35248;BME280;21380;52.194;20.520;2022-07-22T00:15:58;100542.81;;;24.52;73.17
35248;BME280;21380;52.194;20.520;2022-07-22T00:18:24;100543.63;;;24.57;73.14
35248;BME280;21380;52.194;20.520;2022-07-22T00:20:50;100545.47;;;24.52;73.07
35248;BME280;21380;52.194;20.520;2022-07-22T00:23:16;100549.81;;;24.54;73.03
35248;BME280;21380;52.194;20.520;2022-07-22T00:25:42;100538.47;;;24.49;73.11
35248;BME280;21380;52.194;20.520;2022-07-22T00:28:08;100548.94;;;24.54;72.94
35248;BME280;21380;52.194;20.520;2022-07-22T00:30:34;100545.44;;;24.53;73.03
35248;BME280;21380;52.194;20.520;2022-07-22T00:33:00;100551.59;;;24.52;73.03
35248;BME280;21380;52.194;20.520;2022-07-22T00:35:26;100546.31;;;24.52;73.06
35248;BME280;21380;52.194;20.520;2022-07-22T00:37:52;100537.56;;;24.52;72.91
35248;BME280;21380;52.194;20.520;2022-07-22T00:40:17;100533.16;;;24.51;72.99
35248;BME280;21380;52.194;20.520;2022-07-22T00:42:43;100539.34;;;24.50;72.77
35248;BME280;21380;52.194;20.520;2022-07-22T00:45:09;100536.72;;;24.48;72.86
35248;BME280;21380;52.194;20.520;2022-07-22T00:47:35;100534.94;;;24.49;72.86
35248;BME280;21380;52.194;20.520;2022-07-22T00:50:03;100534.94;;;24.49;72.95
35248;BME280;21380;52.194;20.520;2022-07-22T00:52:30;100531.47;;;24.47;72.70
35248;BME280;21380;52.194;20.520;2022-07-22T00:54:58;100528.84;;;24.45;72.86
35248;BME280;21380;52.194;20.520;2022-07-22T00:57:24;100530.59;;;24.46;72.79
35248;BME280;21380;52.194;20.520;2022-07-22T00:59:50;100523.56;;;24.45;72.87
35248;BME280;21380;52.194;20.520;2022-07-22T01:02:16;100518.47;;;24.36;72.92
35248;BME280;21380;52.194;20.520;2022-07-22T01:04:42;100527.13;;;24.44;72.66
35248;BME280;21380;52.194;20.520;2022-07-22T01:07:08;100531.50;;;24.43;72.58
35248;BME280;21380;52.194;20.520;2022-07-22T01:09:34;100528.91;;;24.42;72.61
35248;BME280;21380;52.194;20.520;2022-07-22T01:12:01;100533.31;;;24.41;72.71
35248;BME280;21380;52.194;20.520;2022-07-22T01:14:27;100547.41;;;24.40;72.74
35248;BME280;21380;52.194;20.520;2022-07-22T01:16:52;100547.41;;;24.40;72.66
35248;BME280;21380;52.194;20.520;2022-07-22T01:19:19;100557.06;;;24.40;72.62
35248;BME280;21380;52.194;20.520;2022-07-22T01:21:45;100558.84;;;24.39;72.47
35248;BME280;21380;52.194;20.520;2022-07-22T01:24:10;100560.59;;;24.39;72.39
35248;BME280;21380;52.194;20.520;2022-07-22T01:26:36;100568.50;;;24.37;72.47
35248;BME280;21380;52.194;20.520;2022-07-22T01:29:03;100587.00;;;24.36;72.51
35248;BME280;21380;52.194;20.520;2022-07-22T01:31:31;100578.22;;;24.35;72.48
35248;BME280;21380;52.194;20.520;2022-07-22T01:33:57;100594.94;;;24.34;72.45
35248;BME280;21380;52.194;20.520;2022-07-22T01:36:23;100578.28;;;24.31;72.35
35248;BME280;21380;52.194;20.520;2022-07-22T01:38:49;100575.63;;;24.32;72.51
35248;BME280;21380;52.194;20.520;2022-07-22T01:41:15;100589.69;;;24.31;72.41
35248;BME280;21380;52.194;20.520;2022-07-22T01:43:41;100568.59;;;24.31;72.43
35248;BME280;21380;52.194;20.520;2022-07-22T01:46:07;100568.59;;;24.31;72.40
35248;BME280;21380;52.194;20.520;2022-07-22T01:48:33;100598.53;;;24.30;72.24
35248;BME280;21380;52.194;20.520;2022-07-22T01:50:59;100575.69;;;24.29;72.19
35248;BME280;21380;52.194;20.520;2022-07-22T01:53:25;100573.03;;;24.29;72.37
35248;BME280;21380;52.194;20.520;2022-07-22T01:55:51;100572.16;;;24.28;72.19
35248;BME280;21380;52.194;20.520;2022-07-22T01:58:17;100573.94;;;24.28;72.25
35248;BME280;21380;52.194;20.520;2022-07-22T02:00:43;100560.78;;;24.26;72.18
35248;BME280;21380;52.194;20.520;2022-07-22T02:03:09;100568.69;;;24.26;72.17
35248;BME280;21380;52.194;20.520;2022-07-22T02:05:36;100567.84;;;24.23;72.49
35248;BME280;21380;52.194;20.520;2022-07-22T02:08:04;100574.84;;;24.25;72.11
35248;BME280;21380;52.194;20.520;2022-07-22T02:10:31;100572.25;;;24.24;72.30
35248;BME280;21380;52.194;20.520;2022-07-22T02:12:58;100575.75;;;24.23;72.19
35248;BME280;21380;52.194;20.520;2022-07-22T02:15:24;100563.44;;;24.23;72.21
35248;BME280;21380;52.194;20.520;2022-07-22T02:17:50;100563.47;;;24.22;72.17
35248;BME280;21380;52.194;20.520;2022-07-22T02:20:16;100563.47;;;24.22;72.25
35248;BME280;21380;52.194;20.520;2022-07-22T02:22:42;100566.13;;;24.20;72.06
35248;BME280;21380;52.194;20.520;2022-07-22T02:25:08;100567.88;;;24.20;72.16
35248;BME280;21380;52.194;20.520;2022-07-22T02:27:34;100563.50;;;24.19;72.03
35248;BME280;21380;52.194;20.520;2022-07-22T02:30:00;100562.63;;;24.18;71.89
35248;BME280;21380;52.194;20.520;2022-07-22T02:32:26;100558.25;;;24.17;72.03
35248;BME280;21380;52.194;20.520;2022-07-22T02:34:52;100548.59;;;24.18;71.85
35248;BME280;21380;52.194;20.520;2022-07-22T02:37:18;100549.50;;;24.17;72.04
35248;BME280;21380;52.194;20.520;2022-07-22T02:39:44;100537.25;;;24.12;72.08
35248;BME280;21380;52.194;20.520;2022-07-22T02:42:10;100544.22;;;24.17;71.90
35248;BME280;21380;52.194;20.520;2022-07-22T02:44:36;100541.63;;;24.15;72.01
35248;BME280;21380;52.194;20.520;2022-07-22T02:47:02;100545.13;;;24.14;71.88
35248;BME280;21380;52.194;20.520;2022-07-22T02:49:28;100538.09;;;24.15;71.97
35248;BME280;21380;52.194;20.520;2022-07-22T02:51:53;100532.84;;;24.13;71.98
35248;BME280;21380;52.194;20.520;2022-07-22T02:54:19;100526.72;;;24.12;71.86
35248;BME280;21380;52.194;20.520;2022-07-22T02:56:45;100526.72;;;24.12;71.80
35248;BME280;21380;52.194;20.520;2022-07-22T02:59:11;100535.50;;;24.11;71.84
35248;BME280;21380;52.194;20.520;2022-07-22T03:01:37;100539.03;;;24.10;71.86
35248;BME280;21380;52.194;20.520;2022-07-22T03:04:03;100554.84;;;24.10;72.03
35248;BME280;21380;52.194;20.520;2022-07-22T03:06:29;100570.69;;;24.09;71.78
35248;BME280;21380;52.194;20.520;2022-07-22T03:08:55;100564.53;;;24.08;71.67
35248;BME280;21380;52.194;20.520;2022-07-22T03:11:20;100564.59;;;24.04;71.58
35248;BME280;21380;52.194;20.520;2022-07-22T03:13:46;100570.69;;;24.07;71.92
35248;BME280;21380;52.194;20.520;2022-07-22T03:16:12;100572.44;;;24.07;71.75
35248;BME280;21380;52.194;20.520;2022-07-22T03:18:38;100552.25;;;24.06;71.68
35248;BME280;21380;52.194;20.520;2022-07-22T03:21:04;100547.88;;;24.06;71.73
35248;BME280;21380;52.194;20.520;2022-07-22T03:23:30;100540.84;;;24.05;71.77
35248;BME280;21380;52.194;20.520;2022-07-22T03:25:56;100550.53;;;24.03;71.74
35248;BME280;21380;52.194;20.520;2022-07-22T03:28:24;100557.53;;;24.06;71.63
35248;BME280;21380;52.194;20.520;2022-07-22T03:30:51;100548.75;;;24.05;71.69
35248;BME280;21380;52.194;20.520;2022-07-22T03:33:17;100545.25;;;24.05;71.69
35248;BME280;21380;52.194;20.520;2022-07-22T03:35:42;100550.53;;;24.03;71.51
35248;BME280;21380;52.194;20.520;2022-07-22T03:38:08;100543.53;;;24.02;71.75
35248;BME280;21380;52.194;20.520;2022-07-22T03:40:34;100547.03;;;24.03;71.67
35248;BME280;21380;52.194;20.520;2022-07-22T03:43:00;100548.78;;;24.02;71.82
35248;BME280;21380;52.194;20.520;2022-07-22T03:45:26;100558.44;;;24.03;71.72
35248;BME280;21380;52.194;20.520;2022-07-22T03:47:52;100558.50;;;23.99;71.55
35248;BME280;21380;52.194;20.520;2022-07-22T03:50:20;100552.31;;;24.03;71.51
35248;BME280;21380;52.194;20.520;2022-07-22T03:52:46;100548.78;;;24.02;71.81
35248;BME280;21380;52.194;20.520;2022-07-22T03:55:12;100551.44;;;24.02;71.49
35248;BME280;21380;52.194;20.520;2022-07-22T03:57:37;100545.28;;;24.03;71.56
35248;BME280;21380;52.194;20.520;2022-07-22T04:00:04;100547.03;;;24.03;71.46
35248;BME280;21380;52.194;20.520;2022-07-22T04:02:31;100552.31;;;24.03;71.43
35248;BME280;21380;52.194;20.520;2022-07-22T04:04:57;100542.63;;;24.03;71.57
35248;BME280;21380;52.194;20.520;2022-07-22T04:07:23;100554.94;;;24.03;71.73
35248;BME280;21380;52.194;20.520;2022-07-22T04:09:49;100553.16;;;24.03;71.72
35248;BME280;21380;52.194;20.520;2022-07-22T04:12:14;100542.69;;;24.00;71.53
35248;BME280;21380;52.194;20.520;2022-07-22T04:14:40;100554.91;;;24.06;71.50
35248;BME280;21380;52.194;20.520;2022-07-22T04:17:06;100543.53;;;24.01;71.63
35248;BME280;21380;52.194;20.520;2022-07-22T04:19:32;100554.91;;;24.06;71.63
35248;BME280;21380;52.194;20.520;2022-07-22T04:21:58;100550.50;;;24.05;71.83
35248;BME280;21380;52.194;20.520;2022-07-22T04:24:24;100552.25;;;24.06;71.82
35248;BME280;21380;52.194;20.520;2022-07-22T04:26:49;100553.16;;;24.06;71.61
35248;BME280;21380;52.194;20.520;2022-07-22T04:29:15;100540.91;;;24.01;71.82
35248;BME280;21380;52.194;20.520;2022-07-22T04:31:41;100547.84;;;24.08;71.74
35248;BME280;21380;52.194;20.520;2022-07-22T04:34:07;100541.69;;;24.07;71.73
35248;BME280;21380;52.194;20.520;2022-07-22T04:36:33;100543.44;;;24.08;71.65
35248;BME280;21380;52.194;20.520;2022-07-22T04:38:59;100547.81;;;24.09;71.64
35248;BME280;21380;52.194;20.520;2022-07-22T04:41:25;100539.97;;;24.06;71.99
35248;BME280;21380;52.194;20.520;2022-07-22T04:43:50;100534.66;;;24.09;71.79
35248;BME280;21380;52.194;20.520;2022-07-22T04:46:16;100539.91;;;24.09;71.81
35248;BME280;21380;52.194;20.520;2022-07-22T05:01:25;100545.97;;;24.18;71.59
35248;BME280;21380;52.194;20.520;2022-07-22T05:03:51;100538.97;;;24.15;71.53
35248;BME280;21380;52.194;20.520;2022-07-22T05:06:18;100545.06;;;24.17;71.58
35248;BME280;21380;52.194;20.520;2022-07-22T05:08:44;100540.69;;;24.18;71.61
35248;BME280;21380;52.194;20.520;2022-07-22T05:11:10;100538.94;;;24.17;71.68
35248;BME280;21380;52.194;20.520;2022-07-22T05:13:36;100545.97;;;24.18;71.55
35248;BME280;21380;52.194;20.520;2022-07-22T05:16:03;100542.41;;;24.19;71.65
35248;BME280;21380;52.194;20.520;2022-07-22T05:18:29;100538.88;;;24.20;71.82
35248;BME280;21380;52.194;20.520;2022-07-22T05:20:55;100541.53;;;24.20;71.80
35248;BME280;21380;52.194;20.520;2022-07-22T05:23:20;100537.13;;;24.22;71.54
35248;BME280;21380;52.194;20.520;2022-07-22T05:25:46;100543.25;;;24.22;71.77
35248;BME280;21380;52.194;20.520;2022-07-22T05:28:12;100529.19;;;24.23;71.91
35248;BME280;21380;52.194;20.520;2022-07-22T05:30:38;100531.78;;;24.25;71.89
35248;BME280;21380;52.194;20.520;2022-07-22T05:33:04;100531.84;;;24.22;71.76
35248;BME280;21380;52.194;20.520;2022-07-22T05:35:30;100536.16;;;24.26;72.09
35248;BME280;21380;52.194;20.520;2022-07-22T05:37:55;100543.19;;;24.27;71.87
35248;BME280;21380;52.194;20.520;2022-07-22T05:40:22;100542.28;;;24.28;72.04
35248;BME280;21380;52.194;20.520;2022-07-22T05:42:47;100545.78;;;24.28;71.97
35248;BME280;21380;52.194;20.520;2022-07-22T05:45:13;100543.16;;;24.28;72.00
35248;BME280;21380;52.194;20.520;2022-07-22T05:47:39;100549.31;;;24.29;71.90
35248;BME280;21380;52.194;20.520;2022-07-22T05:50:05;100551.06;;;24.30;72.25
35248;BME280;21380;52.194;20.520;2022-07-22T05:52:31;100548.44;;;24.30;72.03
35248;BME280;21380;52.194;20.520;2022-07-22T05:55:00;100544.09;;;24.24;71.87
35248;BME280;21380;52.194;20.520;2022-07-22T05:57:26;100556.34;;;24.30;72.19
35248;BME280;21380;52.194;20.520;2022-07-22T05:59:52;100556.38;;;24.27;72.20
35248;BME280;21380;52.194;20.520;2022-07-22T06:02:18;100562.47;;;24.31;72.09
35248;BME280;21380;52.194;20.520;2022-07-22T06:04:43;100565.09;;;24.31;72.04
35248;BME280;21380;52.194;20.520;2022-07-22T06:07:09;100566.88;;;24.30;72.00
35248;BME280;21380;52.194;20.520;2022-07-22T06:09:36;100569.53;;;24.30;71.89
35248;BME280;21380;52.194;20.520;2022-07-22T06:12:02;100572.16;;;24.30;71.79
35248;BME280;21380;52.194;20.520;2022-07-22T06:14:28;100571.25;;;24.29;71.83
35248;BME280;21380;52.194;20.520;2022-07-22T06:16:54;100565.13;;;24.29;71.97
35248;BME280;21380;52.194;20.520;2022-07-22T06:19:20;100575.69;;;24.29;71.88
35248;BME280;21380;52.194;20.520;2022-07-22T06:21:46;100566.88;;;24.28;71.98
35248;BME280;21380;52.194;20.520;2022-07-22T06:24:12;100563.38;;;24.28;71.82
35248;BME280;21380;52.194;20.520;2022-07-22T06:26:38;100566.03;;;24.25;71.78
35248;BME280;21380;52.194;20.520;2022-07-22T06:29:03;100559.03;;;24.25;71.87
35248;BME280;21380;52.194;20.520;2022-07-22T06:31:29;100566.88;;;24.28;71.90
35248;BME280;21380;52.194;20.520;2022-07-22T06:33:55;100568.66;;;24.28;71.85
35248;BME280;21380;52.194;20.520;2022-07-22T06:36:21;100564.28;;;24.27;72.07
35248;BME280;21380;52.194;20.520;2022-07-22T06:38:47;100566.91;;;24.27;71.93
35248;BME280;21380;52.194;20.520;2022-07-22T06:41:13;100563.41;;;24.26;71.95
35248;BME280;21380;52.194;20.520;2022-07-22T06:43:39;100569.59;;;24.24;72.13
35248;BME280;21380;52.194;20.520;2022-07-22T06:46:06;100573.13;;;24.23;72.03
35248;BME280;21380;52.194;20.520;2022-07-22T06:48:31;100574.88;;;24.24;71.95
35248;BME280;21380;52.194;20.520;2022-07-22T06:50:57;100573.06;;;24.26;71.96
35248;BME280;21380;52.194;20.520;2022-07-22T06:53:23;100573.97;;;24.26;72.14
35248;BME280;21380;52.194;20.520;2022-07-22T06:55:49;100581.88;;;24.26;72.15
35248;BME280;21380;52.194;20.520;2022-07-22T06:58:15;100575.69;;;24.26;72.15
35248;BME280;21380;52.194;20.520;2022-07-22T07:00:41;100572.25;;;24.22;72.01
35248;BME280;21380;52.194;20.520;2022-07-22T07:03:06;100582.75;;;24.25;71.98
35248;BME280;21380;52.194;20.520;2022-07-22T07:05:32;100580.97;;;24.26;71.96
35248;BME280;21380;52.194;20.520;2022-07-22T07:07:58;100578.34;;;24.26;71.98
35248;BME280;21380;52.194;20.520;2022-07-22T07:10:24;100578.34;;;24.26;72.22
35248;BME280;21380;52.194;20.520;2022-07-22T07:12:55;100580.16;;;24.24;72.04
35248;BME280;21380;52.194;20.520;2022-07-22T07:15:21;100573.09;;;24.24;72.15
35248;BME280;21380;52.194;20.520;2022-07-22T07:17:47;100578.38;;;24.24;72.10
35248;BME280;21380;52.194;20.520;2022-07-22T07:20:13;100578.38;;;24.24;72.37
35248;BME280;21380;52.194;20.520;2022-07-22T07:22:39;100573.97;;;24.25;72.00
35248;BME280;21380;52.194;20.520;2022-07-22T07:25:06;100577.50;;;24.22;72.26
35248;BME280;21380;52.194;20.520;2022-07-22T07:27:32;100583.63;;;24.24;72.12
35248;BME280;21380;52.194;20.520;2022-07-22T07:29:58;100566.97;;;24.24;72.91
35248;BME280;21380;52.194;20.520;2022-07-22T07:32:24;100571.31;;;24.26;72.77
35248;BME280;21380;52.194;20.520;2022-07-22T07:34:50;100582.75;;;24.25;72.43
35248;BME280;21380;52.194;20.520;2022-07-22T07:37:16;100574.88;;;24.24;72.32
35248;BME280;21380;52.194;20.520;2022-07-22T07:39:42;100576.59;;;24.26;72.60
35248;BME280;21380;52.194;20.520;2022-07-22T07:42:07;100570.44;;;24.26;72.50
35248;BME280;21380;52.194;20.520;2022-07-22T07:44:33;100562.59;;;24.23;72.06
35248;BME280;21380;52.194;20.520;2022-07-22T07:46:59;100575.69;;;24.26;72.55
35248;BME280;21380;52.194;20.520;2022-07-22T07:49:25;100572.09;;;24.33;77.78
35248;BME280;21380;52.194;20.520;2022-07-22T07:51:51;100564.94;;;24.43;79.49
35248;BME280;21380;52.194;20.520;2022-07-22T07:54:18;100574.41;;;24.55;80.25
35248;BME280;21380;52.194;20.520;2022-07-22T07:56:43;100562.94;;;24.59;78.92
35248;BME280;21380;52.194;20.520;2022-07-22T07:59:09;100567.25;;;24.63;78.58
35248;BME280;21380;52.194;20.520;2022-07-22T08:01:35;100564.59;;;24.68;77.78
35248;BME280;21380;52.194;20.520;2022-07-22T08:04:01;100559.28;;;24.69;78.23
35248;BME280;21380;52.194;20.520;2022-07-22T08:06:28;100562.63;;;24.81;77.12
35248;BME280;21380;52.194;20.520;2022-07-22T08:08:53;100559.97;;;24.82;76.82
35248;BME280;21380;52.194;20.520;2022-07-22T08:11:19;100562.44;;;24.93;77.78
35248;BME280;21380;52.194;20.520;2022-07-22T08:13:45;100560.69;;;24.92;75.64
35248;BME280;21380;52.194;20.520;2022-07-22T08:16:11;100566.72;;;25.00;75.85
35248;BME280;21380;52.194;20.520;2022-07-22T08:18:37;100550.94;;;24.96;76.89
35248;BME280;21380;52.194;20.520;2022-07-22T08:21:03;100549.91;;;25.04;77.53
35248;BME280;21380;52.194;20.520;2022-07-22T08:23:29;100568.16;;;25.18;75.68
35248;BME280;21380;52.194;20.520;2022-07-22T08:25:55;100574.28;;;25.20;76.05
35248;BME280;21380;52.194;20.520;2022-07-22T08:28:21;100571.56;;;25.23;75.99
35248;BME280;21380;52.194;20.520;2022-07-22T08:30:47;100547.91;;;25.17;75.96
35248;BME280;21380;52.194;20.520;2022-07-22T08:33:13;100571.34;;;25.37;77.21
35248;BME280;21380;52.194;20.520;2022-07-22T08:35:39;100572.00;;;25.49;76.73
35248;BME280;21380;52.194;20.520;2022-07-22T08:38:05;100569.16;;;25.60;77.46
35248;BME280;21380;52.194;20.520;2022-07-22T08:40:31;100572.63;;;25.63;75.85
35248;BME280;21380;52.194;20.520;2022-07-22T08:42:58;100569.94;;;25.65;75.38
35248;BME280;21380;52.194;20.520;2022-07-22T08:45:28;100564.66;;;25.65;75.24
35248;BME280;21380;52.194;20.520;2022-07-22T08:47:54;100561.13;;;25.66;75.39
35248;BME280;21380;52.194;20.520;2022-07-22T08:50:20;100564.69;;;25.63;75.48
35248;BME280;21380;52.194;20.520;2022-07-22T08:52:46;100570.94;;;25.59;75.54
35248;BME280;21380;52.194;20.520;2022-07-22T08:55:12;100561.38;;;25.53;75.46
35248;BME280;21380;52.194;20.520;2022-07-22T08:57:44;100560.59;;;25.48;75.45
35248;BME280;21380;52.194;20.520;2022-07-22T09:00:12;100576.47;;;25.45;75.35
35248;BME280;21380;52.194;20.520;2022-07-22T09:02:39;100574.81;;;25.41;75.65
35248;BME280;21380;52.194;20.520;2022-07-22T09:05:09;100566.13;;;25.33;75.59
35248;BME280;21380;52.194;20.520;2022-07-22T09:07:40;100562.56;;;25.34;75.51
35248;BME280;21380;52.194;20.520;2022-07-22T09:10:07;100562.66;;;25.31;75.62
35248;BME280;21380;52.194;20.520;2022-07-22T09:12:34;100565.31;;;25.28;75.38
35248;BME280;21380;52.194;20.520;2022-07-22T09:15:02;100568.88;;;25.25;75.40
35248;BME280;21380;52.194;20.520;2022-07-22T09:17:31;100568.97;;;25.22;75.33
35248;BME280;21380;52.194;20.520;2022-07-22T09:19:59;100571.63;;;25.20;75.22
35248;BME280;21380;52.194;20.520;2022-07-22T09:22:53;100570.78;;;25.18;75.20
35248;BME280;21380;52.194;20.520;2022-07-22T09:27:47;100570.84;;;25.14;75.14
35248;BME280;21380;52.194;20.520;2022-07-22T09:30:25;100569.13;;;25.11;75.00
35248;BME280;21380;52.194;20.520;2022-07-22T09:32:53;100564.75;;;25.10;75.04
35248;BME280;21380;52.194;20.520;2022-07-22T09:35:22;100560.41;;;25.07;74.89
35248;BME280;21380;52.194;20.520;2022-07-22T09:37:58;100563.06;;;25.06;74.88
35248;BME280;21380;52.194;20.520;2022-07-22T09:40:26;100556.94;;;25.05;74.81
35248;BME280;21380;52.194;20.520;2022-07-22T09:42:55;100553.44;;;25.03;74.87
35248;BME280;21380;52.194;20.520;2022-07-22T09:45:22;100551.72;;;25.01;75.05
35248;BME280;21380;52.194;20.520;2022-07-22T09:47:49;100559.66;;;25.01;74.86
35248;BME280;21380;52.194;20.520;2022-07-22T09:50:22;100549.16;;;24.98;74.78
35248;BME280;21380;52.194;20.520;2022-07-22T09:52:50;100554.44;;;24.96;74.87
35248;BME280;21380;52.194;20.520;2022-07-22T09:55:18;100557.13;;;24.95;74.69
35248;BME280;21380;52.194;20.520;2022-07-22T09:57:45;100548.41;;;24.89;74.72
35248;BME280;21380;52.194;20.520;2022-07-22T10:00:16;100557.16;;;24.93;74.65
35248;BME280;21380;52.194;20.520;2022-07-22T10:05:21;100559.81;;;24.90;74.59
35248;BME280;21380;52.194;20.520;2022-07-22T10:07:49;100557.19;;;24.90;74.49
35248;BME280;21380;52.194;20.520;2022-07-22T10:10:18;100553.69;;;24.89;74.64
35248;BME280;21380;52.194;20.520;2022-07-22T10:12:45;100563.38;;;24.89;74.51
35248;BME280;21380;52.194;20.520;2022-07-22T10:15:13;100553.72;;;24.86;74.65
35248;BME280;21380;52.194;20.520;2022-07-22T10:17:42;100559.91;;;24.85;74.36
35248;BME280;21380;52.194;20.520;2022-07-22T10:20:10;100553.81;;;24.82;74.50
35248;BME280;21380;52.194;20.520;2022-07-22T10:25:06;100553.78;;;24.83;74.53
35248;BME280;21380;52.194;20.520;2022-07-22T10:27:55;100559.09;;;24.82;74.29
35248;BME280;21380;52.194;20.520;2022-07-22T10:30:39;100538.91;;;24.77;74.26
35248;BME280;21380;52.194;20.520;2022-07-22T10:33:09;100545.00;;;24.83;74.24
35248;BME280;21380;52.194;20.520;2022-07-22T10:35:53;100549.44;;;24.81;74.33
35248;BME280;21380;52.194;20.520;2022-07-22T10:38:19;100540.66;;;24.80;74.39
35248;BME280;21380;52.194;20.520;2022-07-22T10:43:19;100533.69;;;24.76;74.29
35248;BME280;21380;52.194;20.520;2022-07-22T10:45:50;100539.81;;;24.78;74.16
35248;BME280;21380;52.194;20.520;2022-07-22T10:48:17;100540.66;;;24.79;74.41
35248;BME280;21380;52.194;20.520;2022-07-22T10:50:47;100541.56;;;24.77;74.19
35248;BME280;21380;52.194;20.520;2022-07-22T10:53:23;100528.47;;;24.73;74.39
35248;BME280;21380;52.194;20.520;2022-07-22T10:56:12;100539.84;;;24.75;74.24
35248;BME280;21380;52.194;20.520;2022-07-22T10:58:39;100546.00;;;24.75;74.06
35248;BME280;21380;52.194;20.520;2022-07-22T11:01:13;100538.97;;;24.74;74.21
35248;BME280;21380;52.194;20.520;2022-07-22T11:03:40;100538.97;;;24.74;73.95
35248;BME280;21380;52.194;20.520;2022-07-22T11:19:05;100532.84;;;24.74;73.88
35248;BME280;21380;52.194;20.520;2022-07-22T11:21:33;100534.56;;;24.75;74.02
35248;BME280;21380;52.194;20.520;2022-07-22T11:24:01;100538.09;;;24.75;73.97
35248;BME280;21380;52.194;20.520;2022-07-22T11:26:47;100539.84;;;24.75;74.21
35248;BME280;21380;52.194;20.520;2022-07-22T11:29:30;100534.59;;;24.73;74.17
35248;BME280;21380;52.194;20.520;2022-07-22T11:32:00;100543.41;;;24.72;73.95
35248;BME280;21380;52.194;20.520;2022-07-22T11:34:27;100522.41;;;24.66;73.89
35248;BME280;21380;52.194;20.520;2022-07-22T11:36:54;100532.00;;;24.72;74.08
35248;BME280;21380;52.194;20.520;2022-07-22T11:39:26;100522.41;;;24.66;73.92
35248;BME280;21380;52.194;20.520;2022-07-22T11:41:55;100526.72;;;24.72;74.03
35248;BME280;21380;52.194;20.520;2022-07-22T11:44:23;100531.13;;;24.71;73.96
35248;BME280;21380;52.194;20.520;2022-07-22T11:46:50;100528.50;;;24.70;73.99
35248;BME280;21380;52.194;20.520;2022-07-22T11:49:20;100527.63;;;24.69;73.98
35248;BME280;21380;52.194;20.520;2022-07-22T11:51:47;100525.03;;;24.68;74.04
35248;BME280;21380;52.194;20.520;2022-07-22T11:54:13;100526.75;;;24.69;73.85
35248;BME280;21380;52.194;20.520;2022-07-22T11:56:39;100527.66;;;24.68;74.01
35248;BME280;21380;52.194;20.520;2022-07-22T11:59:07;100528.50;;;24.70;74.04
35248;BME280;21380;52.194;20.520;2022-07-22T12:01:36;100530.28;;;24.69;74.23
35248;BME280;21380;52.194;20.520;2022-07-22T12:04:24;100517.97;;;24.68;74.06
35248;BME280;21380;52.194;20.520;2022-07-22T12:06:51;100532.03;;;24.69;74.13
35248;BME280;21380;52.194;20.520;2022-07-22T12:09:20;100526.75;;;24.69;73.93
35248;BME280;21380;52.194;20.520;2022-07-22T12:11:49;100523.25;;;24.68;74.07
35248;BME280;21380;52.194;20.520;2022-07-22T12:14:18;100513.69;;;24.59;74.08
35248;BME280;21380;52.194;20.520;2022-07-22T12:19:23;100520.63;;;24.68;74.17
35248;BME280;21380;52.194;20.520;2022-07-22T12:24:26;100522.38;;;24.69;74.00
35248;BME280;21380;52.194;20.520;2022-07-22T12:26:53;100524.13;;;24.69;74.13
35248;BME280;21380;52.194;20.520;2022-07-22T12:31:55;100517.97;;;24.68;74.05
35248;BME280;21380;52.194;20.520;2022-07-22T12:34:41;100513.56;;;24.69;74.17
35248;BME280;21380;52.194;20.520;2022-07-22T12:37:29;100511.84;;;24.68;73.99
35248;BME280;21380;52.194;20.520;2022-07-22T12:40:06;100511.84;;;24.68;74.02
35248;BME280;21380;52.194;20.520;2022-07-22T12:42:41;100510.06;;;24.68;74.09
35248;BME280;21380;52.194;20.520;2022-07-22T12:45:09;100510.06;;;24.68;73.96
35248;BME280;21380;52.194;20.520;2022-07-22T12:50:34;100510.06;;;24.68;74.19
35248;BME280;21380;52.194;20.520;2022-07-22T12:55:37;100494.25;;;24.68;74.02
35248;BME280;21380;52.194;20.520;2022-07-22T12:58:05;100499.50;;;24.68;74.01
35248;BME280;21380;52.194;20.520;2022-07-22T13:00:40;100497.78;;;24.67;73.94
35248;BME280;21380;52.194;20.520;2022-07-22T13:03:06;100501.28;;;24.68;74.01
35248;BME280;21380;52.194;20.520;2022-07-22T13:05:32;100489.91;;;24.66;73.82
35248;BME280;21380;52.194;20.520;2022-07-22T13:07:59;100486.31;;;24.68;73.98
35248;BME280;21380;52.194;20.520;2022-07-22T13:10:26;100494.63;;;24.97;75.18
35248;BME280;21380;52.194;20.520;2022-07-22T13:12:53;100497.50;;;25.31;73.73
35248;BME280;21380;52.194;20.520;2022-07-22T13:15:20;100492.31;;;25.27;73.72
35248;BME280;21380;52.194;20.520;2022-07-22T13:17:46;100490.69;;;25.19;73.83
35248;BME280;21380;52.194;20.520;2022-07-22T13:20:14;100491.66;;;25.15;73.91
35248;BME280;21380;52.194;20.520;2022-07-22T13:22:45;100483.91;;;25.06;73.83
35248;BME280;21380;52.194;20.520;2022-07-22T13:25:12;100489.16;;;25.07;73.97
35248;BME280;21380;52.194;20.520;2022-07-22T13:27:38;100481.41;;;24.98;74.08
35248;BME280;21380;52.194;20.520;2022-07-22T13:30:05;100483.19;;;24.96;74.22